Opemar I — ISSZ — position and weather

sailwx.info

Track history (hours):
 
Tides and Currents Weather Stations Pressure Air Temp Water Temp Dewpoint Dewpoint Depression Visibility Wind Speed Wind Dir Waves Ship Positions

Opemar I

Last reported at 2016-May-27 13:24 UTC. Time now 2016-May-27 14:17 UTC.
Position N 44°35' E 012°45'.

Length 45 m; draft 2 m.

Type: Cargo ship. MMSI: 247230600.

Date/timePositionNaut miles runAvg speedWind from/ knotsBaromVisibWave heightAir tempDewpointWater temp
2016-May-27 13:24N 44°35' E 012°45'4 4.5
2016-May-27 12:33N 44°36' E 012°50'0 0.2
2016-May-27 11:34N 44°36' E 012°49'4 3.5
2016-May-27 10:33N 44°39' E 012°51'0 0.0
2016-May-27 09:33N 44°39' E 012°51'2 2.0
2016-May-27 08:34N 44°40' E 012°49'1 1.3
2016-May-27 07:33N 44°39' E 012°50'2 2.3
2016-May-27 06:33N 44°36' E 012°50'0 0.1
2016-May-27 05:34N 44°36' E 012°50'0 0.0
2016-May-27 04:34N 44°36' E 012°50'0 0.0
2016-May-27 03:33N 44°36' E 012°50'0 0.0
2016-May-27 02:33N 44°36' E 012°50'0 0.0
2016-May-27 01:34N 44°36' E 012°50'0 0.0
2016-May-27 00:34N 44°36' E 012°50'0 0.0
2016-May-26 23:33N 44°36' E 012°50'0 0.0
2016-May-26 22:33N 44°36' E 012°50'0 0.0
2016-May-26 21:34N 44°37' E 012°50'0 0.0
2016-May-26 20:33N 44°37' E 012°50'0 0.0
2016-May-26 19:33N 44°37' E 012°50'0 0.0
2016-May-26 18:33N 44°37' E 012°50'0 0.0
2016-May-26 17:33N 44°36' E 012°50'0 0.0
2016-May-26 16:34N 44°36' E 012°50'6 5.7
2016-May-26 15:33N 44°41' E 012°55'0 0.1
2016-May-26 14:34N 44°41' E 012°55'5 5.3
2016-May-26 13:34N 44°36' E 012°59'6 6.0
2016-May-26 12:31N 44°30' E 013°02'3 0.2
2016-May-26 01:33N 44°28' E 012°59'0 0.0
2016-May-26 00:34N 44°28' E 012°59'0 0.0
2016-May-25 21:18N 44°28' E 012°59'0 0.0
2016-May-25 20:33N 44°28' E 012°59'0 0.0
2016-May-25 19:33N 44°28' E 012°59'  
2016-May-18 18:33N 44°28' E 012°15'0 0.0
2016-May-18 17:33N 44°28' E 012°15'  
Track history (hours):
 
Tides and Currents Weather Stations Pressure Air Temp Water Temp Dewpoint Dewpoint Depression Visibility Wind Speed Wind Dir Waves Ship Positions

Opemar I

Last reported at 2016-May-27 13:24 UTC. Time now 2016-May-27 14:17 UTC.
Position N 44°35' E 012°45'.

Length 45 m; draft 2 m.

Type: Cargo ship. MMSI: 247230600.

Date/timePositionNaut miles runAvg speedWind from/ knotsBaromVisibWave heightAir tempDewpointWater temp
2016-May-27 13:24N 44°35' E 012°45'4 4.5
2016-May-27 12:33N 44°36' E 012°50'0 0.2
2016-May-27 11:34N 44°36' E 012°49'4 3.5
2016-May-27 10:33N 44°39' E 012°51'0 0.0
2016-May-27 09:33N 44°39' E 012°51'2 2.0
2016-May-27 08:34N 44°40' E 012°49'1 1.3
2016-May-27 07:33N 44°39' E 012°50'2 2.3
2016-May-27 06:33N 44°36' E 012°50'0 0.1
2016-May-27 05:34N 44°36' E 012°50'0 0.0
2016-May-27 04:34N 44°36' E 012°50'0 0.0
2016-May-27 03:33N 44°36' E 012°50'0 0.0
2016-May-27 02:33N 44°36' E 012°50'0 0.0
2016-May-27 01:34N 44°36' E 012°50'0 0.0
2016-May-27 00:34N 44°36' E 012°50'0 0.0
2016-May-26 23:33N 44°36' E 012°50'0 0.0
2016-May-26 22:33N 44°36' E 012°50'0 0.0
2016-May-26 21:34N 44°37' E 012°50'0 0.0
2016-May-26 20:33N 44°37' E 012°50'0 0.0
2016-May-26 19:33N 44°37' E 012°50'0 0.0
2016-May-26 18:33N 44°37' E 012°50'0 0.0
2016-May-26 17:33N 44°36' E 012°50'0 0.0
2016-May-26 16:34N 44°36' E 012°50'6 5.7
2016-May-26 15:33N 44°41' E 012°55'0 0.1
2016-May-26 14:34N 44°41' E 012°55'5 5.3
2016-May-26 13:34N 44°36' E 012°59'6 6.0
2016-May-26 12:31N 44°30' E 013°02'3 0.2
2016-May-26 01:33N 44°28' E 012°59'0 0.0
2016-May-26 00:34N 44°28' E 012°59'0 0.0
2016-May-25 21:18N 44°28' E 012°59'0 0.0
2016-May-25 20:33N 44°28' E 012°59'0 0.0
2016-May-25 19:33N 44°28' E 012°59'  
2016-May-18 18:33N 44°28' E 012°15'0 0.0
2016-May-18 17:33N 44°28' E 012°15'  

Dump ship's entire track history